Time,TemperatureF,DewpointF,PressureIn,WindDirection,WindDirectionDegrees,WindSpeedMPH,WindSpeedGustMPH,Humidity,HourlyPrecipIn,Conditions,Clouds,dailyrainin,SoftwareType,DateUTC
2013-01-17 00:00:00,17.0,8.6,30.34,North,1,0.0,0.0,69,0.00,,,0.00,Wunderground v.1.15,2013-01-17 07:00:00,
2013-01-17 00:10:00,16.9,8.5,30.34,North,1,0.0,0.0,69,0.00,,,0.00,Wunderground v.1.15,2013-01-17 07:10:00,
2013-01-17 00:15:00,16.7,8.6,30.34,North,1,0.0,0.0,70,0.00,,,0.00,Wunderground v.1.15,2013-01-17 07:15:00,
2013-01-17 00:25:00,17.0,9.2,30.34,North,1,0.0,0.0,71,0.00,,,0.00,Wunderground v.1.15,2013-01-17 07:25:00,
2013-01-17 00:30:00,16.7,8.6,30.33,North,1,0.0,0.0,70,0.00,,,0.00,Wunderground v.1.15,2013-01-17 07:30:00,
2013-01-17 00:40:00,16.2,8.4,30.33,North,1,0.0,0.0,71,0.00,,,0.00,Wunderground v.1.15,2013-01-17 07:40:00,
2013-01-17 00:45:00,16.2,8.4,30.34,North,1,0.0,0.0,71,0.00,,,0.00,Wunderground v.1.15,2013-01-17 07:45:00,
2013-01-17 00:55:00,15.9,8.8,30.34,North,1,0.0,0.0,73,0.00,,,0.00,Wunderground v.1.15,2013-01-17 07:55:00,
2013-01-17 01:00:00,15.9,8.2,30.34,North,1,0.0,0.0,71,0.00,,,0.00,Wunderground v.1.15,2013-01-17 08:00:00,
2013-01-17 01:10:00,15.2,7.5,30.34,North,1,0.0,0.0,71,0.00,,,0.00,Wunderground v.1.15,2013-01-17 08:10:00,
2013-01-17 01:15:00,15.4,8.3,30.35,North,1,0.0,0.0,73,0.00,,,0.00,Wunderground v.1.15,2013-01-17 08:15:00,
2013-01-17 01:25:00,15.2,8.1,30.35,North,1,0.0,0.0,73,0.00,,,0.00,Wunderground v.1.15,2013-01-17 08:25:00,
2013-01-17 01:30:00,14.9,7.8,30.34,North,1,0.0,0.0,73,0.00,,,0.00,Wunderground v.1.15,2013-01-17 08:30:00,
2013-01-17 01:40:00,15.1,8.3,30.34,North,1,0.0,0.0,74,0.00,,,0.00,Wunderground v.1.15,2013-01-17 08:40:00,
2013-01-17 01:45:00,15.1,8.0,30.34,North,1,0.0,0.0,73,0.00,,,0.00,Wunderground v.1.15,2013-01-17 08:45:00,
2013-01-17 01:55:00,15.1,7.7,30.34,North,1,0.0,0.0,72,0.00,,,0.00,Wunderground v.1.15,2013-01-17 08:55:00,
2013-01-17 02:00:00,15.1,8.0,30.35,North,1,0.0,0.0,73,0.00,,,0.00,Wunderground v.1.15,2013-01-17 09:00:00,
2013-01-17 02:10:00,14.3,7.2,30.35,North,1,0.0,0.0,73,0.00,,,0.00,Wunderground v.1.15,2013-01-17 09:10:00,
2013-01-17 02:15:00,13.8,6.4,30.37,North,1,0.0,0.0,72,0.00,,,0.00,Wunderground v.1.15,2013-01-17 09:15:00,
2013-01-17 02:25:00,13.8,7.0,30.37,North,1,0.0,0.0,74,0.00,,,0.00,Wunderground v.1.15,2013-01-17 09:25:00,
2013-01-17 02:30:00,13.8,7.3,30.40,North,1,0.0,0.0,75,0.00,,,0.00,Wunderground v.1.15,2013-01-17 09:30:00,
2013-01-17 02:40:00,13.6,7.1,30.40,North,1,0.0,0.0,75,0.00,,,0.00,Wunderground v.1.15,2013-01-17 09:40:00,
2013-01-17 02:45:00,13.6,7.1,30.40,North,1,0.0,0.0,75,0.00,,,0.00,Wunderground v.1.15,2013-01-17 09:45:00,
2013-01-17 02:55:00,13.3,6.9,30.40,North,1,0.0,0.0,75,0.00,,,0.00,Wunderground v.1.15,2013-01-17 09:55:00,
2013-01-17 03:00:00,13.3,7.1,30.42,North,1,0.0,0.0,76,0.00,,,0.00,Wunderground v.1.15,2013-01-17 10:00:00,
2013-01-17 03:10:00,13.5,7.0,30.42,North,1,0.0,0.0,75,0.00,,,0.00,Wunderground v.1.15,2013-01-17 10:10:00,
2013-01-17 03:15:00,13.5,6.8,30.40,North,1,0.0,0.0,74,0.00,,,0.00,Wunderground v.1.15,2013-01-17 10:15:00,
2013-01-17 03:25:00,12.8,6.1,30.40,North,1,0.0,0.0,74,0.00,,,0.00,Wunderground v.1.15,2013-01-17 10:25:00,
2013-01-17 03:30:00,12.9,6.5,30.44,North,1,0.0,0.0,75,0.00,,,0.00,Wunderground v.1.15,2013-01-17 10:30:00,
2013-01-17 03:40:00,12.9,6.5,30.44,North,1,0.0,0.0,75,0.00,,,0.00,Wunderground v.1.15,2013-01-17 10:40:00,
2013-01-17 03:45:00,12.9,6.5,30.44,North,1,0.0,0.0,75,0.00,,,0.00,Wunderground v.1.15,2013-01-17 10:45:00,
2013-01-17 03:55:00,12.1,5.4,30.44,North,1,0.0,0.0,74,0.00,,,0.00,Wunderground v.1.15,2013-01-17 10:55:00,
2013-01-17 04:00:00,12.3,5.9,30.46,North,1,0.0,0.0,75,0.00,,,0.00,Wunderground v.1.15,2013-01-17 11:00:00,
2013-01-17 04:10:00,12.3,5.3,30.46,North,1,0.0,0.0,73,0.00,,,0.00,Wunderground v.1.15,2013-01-17 11:10:00,
2013-01-17 04:15:00,12.6,5.6,30.46,North,1,0.0,0.0,73,0.00,,,0.00,Wunderground v.1.15,2013-01-17 11:15:00,
2013-01-17 04:25:00,12.9,6.2,30.46,North,1,0.0,0.0,74,0.00,,,0.00,Wunderground v.1.15,2013-01-17 11:25:00,
2013-01-17 04:30:00,13.3,6.3,30.52,North,1,0.0,0.0,73,0.00,,,0.00,Wunderground v.1.15,2013-01-17 11:30:00,
2013-01-17 04:40:00,12.4,4.8,30.52,North,1,0.0,0.0,71,0.00,,,0.00,Wunderground v.1.15,2013-01-17 11:40:00,
2013-01-17 04:45:00,12.1,4.8,30.52,North,1,0.0,0.0,72,0.00,,,0.00,Wunderground v.1.15,2013-01-17 11:45:00,
2013-01-17 04:55:00,11.7,4.4,30.52,North,1,0.0,0.0,72,0.00,,,0.00,Wunderground v.1.15,2013-01-17 11:55:00,
2013-01-17 05:00:00,11.4,4.1,30.51,North,1,0.0,0.0,72,0.00,,,0.00,Wunderground v.1.15,2013-01-17 12:00:00,
2013-01-17 05:10:00,11.4,4.7,30.51,North,1,0.0,0.0,74,0.00,,,0.00,Wunderground v.1.15,2013-01-17 12:10:00,
2013-01-17 05:15:00,11.2,4.5,30.53,North,1,0.0,0.0,74,0.00,,,0.00,Wunderground v.1.15,2013-01-17 12:15:00,
2013-01-17 05:25:00,11.4,4.4,30.53,North,1,0.0,0.0,73,0.00,,,0.00,Wunderground v.1.15,2013-01-17 12:25:00,
2013-01-17 05:30:00,11.4,4.7,30.57,North,1,0.0,0.0,74,0.00,,,0.00,Wunderground v.1.15,2013-01-17 12:30:00,
2013-01-17 05:40:00,11.1,4.1,30.57,North,1,0.0,0.0,73,0.00,,,0.00,Wunderground v.1.15,2013-01-17 12:40:00,
2013-01-17 05:45:00,11.1,4.4,30.57,North,1,0.0,0.0,74,0.00,,,0.00,Wunderground v.1.15,2013-01-17 12:45:00,
2013-01-17 05:55:00,11.2,4.5,30.57,North,1,0.0,0.0,74,0.00,,,0.00,Wunderground v.1.15,2013-01-17 12:55:00,
2013-01-17 06:00:00,11.1,3.8,30.57,North,1,0.0,0.0,72,0.00,,,0.00,Wunderground v.1.15,2013-01-17 13:00:00,
2013-01-17 06:10:00,11.2,4.2,30.57,North,1,0.0,0.0,73,0.00,,,0.00,Wunderground v.1.15,2013-01-17 13:10:00,
2013-01-17 06:15:00,11.2,3.9,30.58,North,1,0.0,0.0,72,0.00,,,0.00,Wunderground v.1.15,2013-01-17 13:15:00,
2013-01-17 06:25:00,11.2,4.8,30.58,North,1,0.0,0.0,75,0.00,,,0.00,Wunderground v.1.15,2013-01-17 13:25:00,
2013-01-17 06:30:00,11.1,3.8,30.60,North,1,0.0,0.0,72,0.00,,,0.00,Wunderground v.1.15,2013-01-17 13:30:00,
2013-01-17 06:40:00,10.4,3.5,30.60,North,1,0.0,0.0,73,0.00,,,0.00,Wunderground v.1.15,2013-01-17 13:40:00,
2013-01-17 06:45:00,10.5,4.1,30.60,North,1,0.0,0.0,75,0.00,,,0.00,Wunderground v.1.15,2013-01-17 13:45:00,
2013-01-17 06:55:00,10.7,4.0,30.60,North,1,0.0,0.0,74,0.00,,,0.00,Wunderground v.1.15,2013-01-17 13:55:00,
2013-01-17 07:00:00,11.2,5.1,30.60,North,1,0.0,0.0,76,0.00,,,0.00,Wunderground v.1.15,2013-01-17 14:00:00,
2013-01-17 07:10:00,10.9,3.6,30.60,North,1,0.0,0.0,72,0.00,,,0.00,Wunderground v.1.15,2013-01-17 14:10:00,
2013-01-17 07:15:00,10.5,3.6,30.61,North,1,0.0,0.0,73,0.00,,,0.00,Wunderground v.1.15,2013-01-17 14:15:00,
2013-01-17 07:25:00,10.2,3.6,30.61,North,1,0.0,0.0,74,0.00,,,0.00,Wunderground v.1.15,2013-01-17 14:25:00,
2013-01-17 07:30:00,10.0,3.4,30.61,North,1,0.0,0.0,74,0.00,,,0.00,Wunderground v.1.15,2013-01-17 14:30:00,
2013-01-17 07:40:00,10.2,3.6,30.61,North,1,0.0,0.0,74,0.00,,,0.00,Wunderground v.1.15,2013-01-17 14:40:00,
2013-01-17 07:45:00,10.4,3.8,30.62,North,1,0.0,0.0,74,0.00,,,0.00,Wunderground v.1.15,2013-01-17 14:45:00,
2013-01-17 07:55:00,11.4,4.1,30.62,North,1,0.0,0.0,72,0.00,,,0.00,Wunderground v.1.15,2013-01-17 14:55:00,
2013-01-17 08:00:00,11.9,4.6,30.59,North,1,0.0,0.0,72,0.00,,,0.00,Wunderground v.1.15,2013-01-17 15:00:00,
2013-01-17 08:10:00,12.1,4.5,30.59,North,1,0.0,0.0,71,0.00,,,0.00,Wunderground v.1.15,2013-01-17 15:10:00,
2013-01-17 08:15:00,12.3,5.3,30.60,North,1,0.0,0.0,73,0.00,,,0.00,Wunderground v.1.15,2013-01-17 15:15:00,
2013-01-17 08:25:00,12.3,4.7,30.60,North,1,0.0,0.0,71,0.00,,,0.00,Wunderground v.1.15,2013-01-17 15:25:00,
2013-01-17 08:30:00,11.7,4.1,30.64,North,1,0.0,0.0,71,0.00,,,0.00,Wunderground v.1.15,2013-01-17 15:30:00,
2013-01-17 08:40:00,11.6,4.6,30.64,North,1,0.0,0.0,73,0.00,,,0.00,Wunderground v.1.15,2013-01-17 15:40:00,
2013-01-17 08:45:00,12.4,6.0,30.65,North,1,0.0,0.0,75,0.00,,,0.00,Wunderground v.1.15,2013-01-17 15:45:00,
2013-01-17 08:55:00,13.6,6.8,30.65,North,1,0.0,0.0,74,0.00,,,0.00,Wunderground v.1.15,2013-01-17 15:55:00,
2013-01-17 09:00:00,14.0,6.6,30.63,North,1,0.0,0.0,72,0.00,,,0.00,Wunderground v.1.15,2013-01-17 16:00:00,
2013-01-17 09:10:00,14.6,6.9,30.63,North,1,0.0,0.0,71,0.00,,,0.00,Wunderground v.1.15,2013-01-17 16:10:00,
2013-01-17 09:15:00,15.1,7.4,30.63,North,1,0.0,0.0,71,0.00,,,0.00,Wunderground v.1.15,2013-01-17 16:15:00,
2013-01-17 09:25:00,16.4,8.3,30.63,North,1,0.0,0.0,70,0.00,,,0.00,Wunderground v.1.15,2013-01-17 16:25:00,
2013-01-17 09:30:00,17.0,8.3,30.63,North,1,0.0,0.0,68,0.00,,,0.00,Wunderground v.1.15,2013-01-17 16:30:00,
2013-01-17 09:40:00,19.2,9.4,30.63,North,1,0.0,0.0,65,0.00,,,0.00,Wunderground v.1.15,2013-01-17 16:40:00,
2013-01-17 09:45:00,19.9,9.7,30.61,North,1,0.0,0.0,64,0.00,,,0.00,Wunderground v.1.15,2013-01-17 16:45:00,
2013-01-17 09:55:00,21.3,10.3,30.61,North,1,0.0,0.0,62,0.00,,,0.00,Wunderground v.1.15,2013-01-17 16:55:00,
2013-01-17 10:00:00,22.4,10.6,30.59,North,1,0.0,0.0,60,0.00,,,0.00,Wunderground v.1.15,2013-01-17 17:00:00,
2013-01-17 10:10:00,23.2,11.0,30.59,North,1,0.0,0.0,59,0.00,,,0.00,Wunderground v.1.15,2013-01-17 17:10:00,
2013-01-17 10:15:00,23.9,11.6,30.57,North,1,0.0,0.0,59,0.00,,,0.00,Wunderground v.1.15,2013-01-17 17:15:00,
2013-01-17 10:25:00,25.7,12.9,30.57,North,1,0.0,0.0,58,0.00,,,0.00,Wunderground v.1.15,2013-01-17 17:25:00,
2013-01-17 10:30:00,26.3,12.7,30.54,North,1,0.0,0.0,56,0.00,,,0.00,Wunderground v.1.15,2013-01-17 17:30:00,
2013-01-17 10:40:00,28.5,13.1,30.54,North,1,0.0,0.0,52,0.00,,,0.00,Wunderground v.1.15,2013-01-17 17:40:00,
2013-01-17 10:45:00,29.3,13.4,30.51,North,1,0.0,0.0,51,0.00,,,0.00,Wunderground v.1.15,2013-01-17 17:45:00,
2013-01-17 10:55:00,30.0,14.0,30.51,North,1,0.0,0.0,51,0.00,,,0.00,Wunderground v.1.15,2013-01-17 17:55:00,
2013-01-17 11:00:00,30.7,13.3,30.49,North,1,0.0,0.0,48,0.00,,,0.00,Wunderground v.1.15,2013-01-17 18:00:00,
2013-01-17 11:10:00,33.1,13.5,30.49,North,1,0.0,0.0,44,0.00,,,0.00,Wunderground v.1.15,2013-01-17 18:10:00,
2013-01-17 11:15:00,34.4,14.7,30.45,North,1,0.0,0.0,44,0.00,,,0.00,Wunderground v.1.15,2013-01-17 18:15:00,
2013-01-17 11:25:00,37.2,14.5,30.45,North,1,0.0,0.0,39,0.00,,,0.00,Wunderground v.1.15,2013-01-17 18:25:00,
2013-01-17 11:30:00,38.2,12.9,30.40,North,1,0.0,0.0,35,0.00,,,0.00,Wunderground v.1.15,2013-01-17 18:30:00,
2013-01-17 11:40:00,40.8,14.6,30.40,North,1,0.0,0.0,34,0.00,,,0.00,Wunderground v.1.15,2013-01-17 18:40:00,
2013-01-17 11:45:00,42.2,13.7,30.36,North,1,0.0,0.0,31,0.00,,,0.00,Wunderground v.1.15,2013-01-17 18:45:00,
2013-01-17 11:55:00,43.2,12.2,30.36,North,1,0.0,0.0,28,0.00,,,0.00,Wunderground v.1.15,2013-01-17 18:55:00,
2013-01-17 12:00:00,43.5,11.7,30.32,North,1,0.0,0.0,27,0.00,,,0.00,Wunderground v.1.15,2013-01-17 19:00:00,
2013-01-17 12:10:00,43.9,12.8,30.32,North,1,0.0,0.0,28,0.00,,,0.00,Wunderground v.1.15,2013-01-17 19:10:00,
2013-01-17 12:15:00,43.8,11.9,30.31,North,1,0.0,0.0,27,0.00,,,0.00,Wunderground v.1.15,2013-01-17 19:15:00,
2013-01-17 12:25:00,43.5,9.9,30.31,North,1,0.0,0.0,25,0.00,,,0.00,Wunderground v.1.15,2013-01-17 19:25:00,
2013-01-17 12:30:00,42.9,11.2,30.32,North,1,0.0,0.0,27,0.00,,,0.00,Wunderground v.1.15,2013-01-17 19:30:00,
2013-01-17 12:40:00,42.6,10.9,30.32,North,1,0.0,0.0,27,0.00,,,0.00,Wunderground v.1.15,2013-01-17 19:40:00,
2013-01-17 12:45:00,42.6,8.3,30.30,North,1,0.0,0.0,24,0.00,,,0.00,Wunderground v.1.15,2013-01-17 19:45:00,
2013-01-17 12:55:00,43.1,9.6,30.30,North,1,0.0,0.0,25,0.00,,,0.00,Wunderground v.1.15,2013-01-17 19:55:00,
2013-01-17 13:00:00,43.8,7.4,30.30,North,1,0.0,0.0,22,0.00,,,0.00,Wunderground v.1.15,2013-01-17 20:00:00,
2013-01-17 13:10:00,45.4,6.6,30.30,North,1,0.0,0.0,20,0.00,,,0.00,Wunderground v.1.15,2013-01-17 20:10:00,
2013-01-17 13:15:00,45.8,5.8,30.27,North,1,0.0,0.0,19,0.00,,,0.00,Wunderground v.1.15,2013-01-17 20:15:00,
2013-01-17 13:25:00,45.8,4.6,30.27,North,1,0.0,0.0,18,0.00,,,0.00,Wunderground v.1.15,2013-01-17 20:25:00,
2013-01-17 13:30:00,45.7,5.7,30.27,North,1,0.0,0.0,19,0.00,,,0.00,Wunderground v.1.15,2013-01-17 20:30:00,
2013-01-17 13:40:00,45.7,6.8,30.27,North,0,0.0,1.0,20,0.00,,,0.00,Wunderground v.1.15,2013-01-17 20:40:00,
2013-01-17 13:45:00,46.0,8.2,30.26,North,0,1.0,1.0,21,0.00,,,0.00,Wunderground v.1.15,2013-01-17 20:45:00,
2013-01-17 13:55:00,46.4,3.9,30.26,NW,311,0.0,0.0,17,0.00,,,0.00,Wunderground v.1.15,2013-01-17 20:55:00,
2013-01-17 14:00:00,46.4,2.6,30.26,NNW,342,1.0,3.0,16,0.00,,,0.00,Wunderground v.1.15,2013-01-17 21:00:00,
2013-01-17 14:10:00,46.8,2.9,30.26,SW,224,2.0,2.0,16,0.00,,,0.00,Wunderground v.1.15,2013-01-17 21:10:00,
2013-01-17 14:15:00,47.4,4.7,30.26,SSW,210,1.0,2.0,17,0.00,,,0.00,Wunderground v.1.15,2013-01-17 21:15:00,
2013-01-17 14:25:00,47.7,3.6,30.26,SSW,210,0.0,0.0,16,0.00,,,0.00,Wunderground v.1.15,2013-01-17 21:25:00,
2013-01-17 14:30:00,47.6,3.5,30.24,West,267,0.0,0.0,16,0.00,,,0.00,Wunderground v.1.15,2013-01-17 21:30:00,
2013-01-17 14:40:00,47.7,2.2,30.24,West,280,1.0,1.0,15,0.00,,,0.00,Wunderground v.1.15,2013-01-17 21:40:00,
2013-01-17 14:45:00,47.0,4.4,30.24,South,181,2.0,2.0,17,0.00,,,0.00,Wunderground v.1.15,2013-01-17 21:45:00,
2013-01-17 14:55:00,45.5,3.1,30.24,WSW,253,1.0,2.0,17,0.00,,,0.00,Wunderground v.1.15,2013-01-17 21:55:00,
2013-01-17 15:00:00,44.9,2.6,30.28,WSW,240,1.0,1.0,17,0.00,,,0.00,Wunderground v.1.15,2013-01-17 22:00:00,
2013-01-17 15:10:00,44.3,3.4,30.28,West,261,0.0,0.0,18,0.00,,,0.00,Wunderground v.1.15,2013-01-17 22:10:00,
2013-01-17 15:15:00,44.1,4.4,30.28,West,280,1.0,1.0,19,0.00,,,0.00,Wunderground v.1.15,2013-01-17 22:15:00,
2013-01-17 15:25:00,43.5,3.9,30.28,SSW,210,1.0,1.0,19,0.00,,,0.00,Wunderground v.1.15,2013-01-17 22:25:00,
2013-01-17 15:30:00,43.3,4.8,30.30,South,181,1.0,1.0,20,0.00,,,0.00,Wunderground v.1.15,2013-01-17 22:30:00,
2013-01-17 15:40:00,42.8,4.4,30.30,WSW,257,1.0,1.0,20,0.00,,,0.00,Wunderground v.1.15,2013-01-17 22:40:00,
2013-01-17 15:45:00,42.5,5.2,30.32,West,263,1.0,1.0,21,0.00,,,0.00,Wunderground v.1.15,2013-01-17 22:45:00,
2013-01-17 15:55:00,41.9,5.8,30.32,NW,326,1.0,1.0,22,0.00,,,0.00,Wunderground v.1.15,2013-01-17 22:55:00,
2013-01-17 16:00:00,41.8,7.6,30.33,South,181,1.0,1.0,24,0.00,,,0.00,Wunderground v.1.15,2013-01-17 23:00:00,
2013-01-17 16:10:00,41.1,7.0,30.33,WSW,237,1.0,1.0,24,0.00,,,0.00,Wunderground v.1.15,2013-01-17 23:10:00,
2013-01-17 16:15:00,40.8,6.7,30.35,SSW,213,1.0,1.0,24,0.00,,,0.00,Wunderground v.1.15,2013-01-17 23:15:00,
2013-01-17 16:25:00,40.5,6.5,30.35,SSW,192,2.0,2.0,24,0.00,,,0.00,Wunderground v.1.15,2013-01-17 23:25:00,
2013-01-17 16:30:00,40.3,6.3,30.35,WSW,247,1.0,1.0,24,0.00,,,0.00,Wunderground v.1.15,2013-01-17 23:30:00,
2013-01-17 16:40:00,40.1,6.1,30.35,SSW,213,1.0,1.0,24,0.00,,,0.00,Wunderground v.1.15,2013-01-17 23:40:00,
2013-01-17 16:45:00,39.9,6.0,30.37,West,278,1.0,5.0,24,0.00,,,0.00,Wunderground v.1.15,2013-01-17 23:45:00,
2013-01-17 16:55:00,39.5,5.6,30.37,South,188,0.0,1.0,24,0.00,,,0.00,Wunderground v.1.15,2013-01-17 23:55:00,
2013-01-17 17:00:00,39.2,5.4,30.37,West,270,0.0,0.0,24,0.00,,,0.00,Wunderground v.1.15,2013-01-18 00:00:00,
2013-01-17 17:10:00,38.5,5.7,30.37,SW,234,0.0,0.0,25,0.00,,,0.00,Wunderground v.1.15,2013-01-18 00:10:00,
2013-01-17 17:15:00,38.3,4.6,30.36,SSW,209,0.0,1.0,24,0.00,,,0.00,Wunderground v.1.15,2013-01-18 00:15:00,
2013-01-17 17:25:00,38.6,3.9,30.36,West,277,0.0,1.0,23,0.00,,,0.00,Wunderground v.1.15,2013-01-18 00:25:00,
2013-01-17 17:30:00,38.6,3.9,30.36,WSW,237,0.0,0.0,23,0.00,,,0.00,Wunderground v.1.15,2013-01-18 00:30:00,
2013-01-17 17:40:00,38.3,3.7,30.36,West,275,0.0,0.0,23,0.00,,,0.00,Wunderground v.1.15,2013-01-18 00:40:00,
2013-01-17 17:45:00,38.0,4.3,30.38,West,272,0.0,0.0,24,0.00,,,0.00,Wunderground v.1.15,2013-01-18 00:45:00,
2013-01-17 17:55:00,37.5,3.9,30.38,NW,318,0.0,0.0,24,0.00,,,0.00,Wunderground v.1.15,2013-01-18 00:55:00,
2013-01-17 18:00:00,37.2,4.5,30.38,NW,318,0.0,0.0,25,0.00,,,0.00,Wunderground v.1.15,2013-01-18 01:00:00,
2013-01-17 18:10:00,37.2,4.5,30.38,West,274,0.0,1.0,25,0.00,,,0.00,Wunderground v.1.15,2013-01-18 01:10:00,
2013-01-17 18:15:00,37.3,5.5,30.38,West,268,0.0,1.0,26,0.00,,,0.00,Wunderground v.1.15,2013-01-18 01:15:00,
2013-01-17 18:25:00,37.0,4.4,30.38,WNW,284,0.0,0.0,25,0.00,,,0.00,Wunderground v.1.15,2013-01-18 01:25:00,
2013-01-17 18:30:00,36.9,4.3,30.38,SW,226,0.0,0.0,25,0.00,,,0.00,Wunderground v.1.15,2013-01-18 01:30:00,
2013-01-17 18:40:00,37.0,2.6,30.38,South,189,0.0,0.0,23,0.00,,,0.00,Wunderground v.1.15,2013-01-18 01:40:00,
2013-01-17 18:45:00,37.2,2.7,30.38,SW,227,0.0,0.0,23,0.00,,,0.00,Wunderground v.1.15,2013-01-18 01:45:00,
2013-01-17 18:55:00,37.2,2.7,30.38,West,278,0.0,0.0,23,0.00,,,0.00,Wunderground v.1.15,2013-01-18 01:55:00,
2013-01-17 19:00:00,36.9,3.4,30.38,East,90,0.0,0.0,24,0.00,,,0.00,Wunderground v.1.15,2013-01-18 02:00:00,
2013-01-17 19:10:00,36.2,1.9,30.38,WNW,285,0.0,0.0,23,0.00,,,0.00,Wunderground v.1.15,2013-01-18 02:10:00,
2013-01-17 19:15:00,36.2,0.9,30.40,WSW,244,0.0,0.0,22,0.00,,,0.00,Wunderground v.1.15,2013-01-18 02:15:00,
2013-01-17 19:25:00,36.3,1.0,30.40,SW,219,0.0,0.0,22,0.00,,,0.00,Wunderground v.1.15,2013-01-18 02:25:00,
2013-01-17 19:30:00,36.6,1.3,30.38,SSW,192,0.0,0.0,22,0.00,,,0.00,Wunderground v.1.15,2013-01-18 02:30:00,
2013-01-17 19:40:00,36.8,0.4,30.38,South,179,0.0,0.0,21,0.00,,,0.00,Wunderground v.1.15,2013-01-18 02:40:00,
2013-01-17 19:45:00,36.8,-0.6,30.38,West,272,0.0,0.0,20,0.00,,,0.00,Wunderground v.1.15,2013-01-18 02:45:00,
2013-01-17 19:55:00,36.9,-1.6,30.38,WNW,285,0.0,1.0,19,0.00,,,0.00,Wunderground v.1.15,2013-01-18 02:55:00,
2013-01-17 20:00:00,36.9,-1.6,30.38,West,275,0.0,0.0,19,0.00,,,0.00,Wunderground v.1.15,2013-01-18 03:00:00,
2013-01-17 20:10:00,35.6,0.4,30.38,West,270,0.0,0.0,22,0.00,,,0.00,Wunderground v.1.15,2013-01-18 03:10:00,
2013-01-17 20:15:00,35.5,-2.8,30.37,West,264,0.0,0.0,19,0.00,,,0.00,Wunderground v.1.15,2013-01-18 03:15:00,
2013-01-17 20:25:00,37.2,-3.7,30.37,South,188,1.0,2.0,17,0.00,,,0.00,Wunderground v.1.15,2013-01-18 03:25:00,
2013-01-17 20:30:00,38.5,-3.9,30.33,West,275,2.0,11.0,16,0.00,,,0.00,Wunderground v.1.15,2013-01-18 03:30:00,
2013-01-17 20:40:00,39.3,-3.2,30.33,West,275,2.0,5.0,16,0.00,,,0.00,Wunderground v.1.15,2013-01-18 03:40:00,
2013-01-17 20:45:00,39.5,-4.4,30.31,NW,304,2.0,5.0,15,0.00,,,0.00,Wunderground v.1.15,2013-01-18 03:45:00,
2013-01-17 20:55:00,39.6,-4.4,30.31,NW,323,3.0,3.0,15,0.00,,,0.00,Wunderground v.1.15,2013-01-18 03:55:00,
2013-01-17 21:00:00,39.6,-3.0,30.30,WSW,258,4.0,4.0,16,0.00,,,0.00,Wunderground v.1.15,2013-01-18 04:00:00,
2013-01-17 21:10:00,39.5,-4.4,30.30,South,182,4.0,4.0,15,0.00,,,0.00,Wunderground v.1.15,2013-01-18 04:10:00,
2013-01-17 21:15:00,39.2,-3.3,30.30,West,271,3.0,4.0,16,0.00,,,0.00,Wunderground v.1.15,2013-01-18 04:15:00,
2013-01-17 21:25:00,39.1,-3.4,30.30,South,179,3.0,7.0,16,0.00,,,0.00,Wunderground v.1.15,2013-01-18 04:25:00,
2013-01-17 21:30:00,39.1,-3.4,30.23,SSW,193,4.0,4.0,16,0.00,,,0.00,Wunderground v.1.15,2013-01-18 04:30:00,
2013-01-17 21:40:00,38.8,-2.4,30.23,SSE,147,3.0,3.0,17,0.00,,,0.00,Wunderground v.1.15,2013-01-18 04:40:00,
2013-01-17 21:45:00,38.8,-2.4,30.22,WNW,282,5.0,5.0,17,0.00,,,0.00,Wunderground v.1.15,2013-01-18 04:45:00,
2013-01-17 21:55:00,38.6,-2.5,30.22,SSE,162,6.0,11.0,17,0.00,,,0.00,Wunderground v.1.15,2013-01-18 04:55:00,
2013-01-17 22:01:00,38.6,-2.5,30.22,SSW,200,7.0,7.0,17,0.00,,,0.00,Wunderground v.1.15,2013-01-18 05:01:00,
2013-01-17 22:10:00,38.5,-1.4,30.22,SSW,199,6.0,6.0,18,0.00,,,0.00,Wunderground v.1.15,2013-01-18 05:10:00,
2013-01-17 22:15:00,38.2,-1.7,30.21,SW,226,6.0,6.0,18,0.00,,,0.00,Wunderground v.1.15,2013-01-18 05:15:00,
2013-01-17 22:25:00,38.2,-1.7,30.21,SW,234,8.0,8.0,18,0.00,,,0.00,Wunderground v.1.15,2013-01-18 05:25:00,
2013-01-17 22:30:00,37.9,-0.8,30.12,SSW,210,8.0,8.0,19,0.00,,,0.00,Wunderground v.1.15,2013-01-18 05:30:00,
2013-01-17 22:40:00,38.0,-0.7,30.12,SW,223,7.0,7.0,19,0.00,,,0.00,Wunderground v.1.15,2013-01-18 05:40:00,
2013-01-17 22:45:00,38.0,-0.7,30.12,SSW,208,7.0,8.0,19,0.00,,,0.00,Wunderground v.1.15,2013-01-18 05:45:00,
2013-01-17 22:55:00,38.0,-0.7,30.12,ESE,116,7.0,7.0,19,0.00,,,0.00,Wunderground v.1.15,2013-01-18 05:55:00,
2013-01-17 23:00:00,37.8,-0.9,30.12,South,169,7.0,7.0,19,0.00,,,0.00,Wunderground v.1.15,2013-01-18 06:00:00,
2013-01-17 23:10:00,37.8,-0.9,30.12,West,263,8.0,29.0,19,0.00,,,0.00,Wunderground v.1.15,2013-01-18 06:10:00,
2013-01-17 23:15:00,37.6,0.1,30.11,SSW,212,8.0,29.0,20,0.00,,,0.00,Wunderground v.1.15,2013-01-18 06:15:00,
2013-01-17 23:25:00,37.8,-0.9,30.11,SSW,200,7.0,12.0,19,0.00,,,0.00,Wunderground v.1.15,2013-01-18 06:25:00,
2013-01-17 23:30:00,37.8,0.2,30.02,SE,137,8.0,11.0,20,0.00,,,0.00,Wunderground v.1.15,2013-01-18 06:30:00,
2013-01-17 23:40:00,37.9,-0.8,30.02,SSW,200,8.0,8.0,19,0.00,,,0.00,Wunderground v.1.15,2013-01-18 06:40:00,
2013-01-17 23:45:00,37.8,0.2,30.02,SW,220,9.0,9.0,20,0.00,,,0.00,Wunderground v.1.15,2013-01-18 06:45:00,
2013-01-17 23:55:00,37.9,-0.8,30.02,WNW,289,7.0,10.0,19,0.00,,,0.00,Wunderground v.1.15,2013-01-18 06:55:00,